createdAt,value
2023-04-10T00:00:57.759Z,7.03
2023-04-10T00:03:27.901Z,7.03
2023-04-10T00:05:58.999Z,7.07
2023-04-10T00:08:27.958Z,7.40
2023-04-10T00:10:57.411Z,7.00
2023-04-10T00:13:26.230Z,7.68
2023-04-10T00:15:54.951Z,8.50
2023-04-10T00:18:23.679Z,7.90
2023-04-10T00:20:55.102Z,8.65
2023-04-10T00:23:30.008Z,8.32
2023-04-10T00:26:00.022Z,8.07
2023-04-10T00:28:31.900Z,8.15
2023-04-10T00:31:00.606Z,8.32
2023-04-10T00:33:29.283Z,9.77
2023-04-10T00:36:04.085Z,9.27
2023-04-10T00:38:43.608Z,9.00
2023-04-10T00:41:16.715Z,8.05
2023-04-10T00:43:47.040Z,8.35
2023-04-10T00:46:16.078Z,8.48
2023-04-10T00:48:44.902Z,7.85
2023-04-10T00:51:15.838Z,7.28
2023-04-10T00:53:49.255Z,7.82
2023-04-10T00:56:21.050Z,7.50
2023-04-10T00:58:50.125Z,7.13
2023-04-10T01:01:19.266Z,8.00
2023-04-10T01:03:48.029Z,8.73
2023-04-10T01:06:23.052Z,9.75
2023-04-10T01:08:57.104Z,9.98
2023-04-10T01:11:30.121Z,9.20
2023-04-10T01:14:04.414Z,8.75
2023-04-10T01:16:39.603Z,9.15
2023-04-10T01:19:10.891Z,9.43
2023-04-10T01:21:40.499Z,8.10
2023-04-10T01:24:23.772Z,9.13
2023-04-10T01:27:01.584Z,8.52
2023-04-10T01:29:32.638Z,8.57
2023-04-10T01:32:04.064Z,8.57
2023-04-10T01:34:39.226Z,9.35
2023-04-10T01:37:11.076Z,9.75
2023-04-10T01:39:41.677Z,8.63
2023-04-10T01:42:13.188Z,8.02
2023-04-10T01:44:44.268Z,7.10
2023-04-10T01:47:13.046Z,7.68
2023-04-10T01:49:44.790Z,8.85
2023-04-10T01:52:13.996Z,7.85
2023-04-10T01:54:43.458Z,7.82
2023-04-10T01:57:15.082Z,7.78
2023-04-10T01:59:45.249Z,7.40
2023-04-10T02:02:19.260Z,7.68
2023-04-10T02:04:51.790Z,7.20
2023-04-10T02:07:24.337Z,8.00
2023-04-10T02:09:57.307Z,8.20
2023-04-10T02:12:28.843Z,7.85
2023-04-10T02:15:01.624Z,7.57
2023-04-10T02:17:31.197Z,8.20
2023-04-10T02:20:00.459Z,8.90
2023-04-10T02:22:32.033Z,8.73
2023-04-10T02:25:00.997Z,8.52
2023-04-10T02:27:30.499Z,8.50
2023-04-10T02:30:04.328Z,8.02
2023-04-10T02:35:03.633Z,8.10
2023-04-10T02:37:33.242Z,8.43
2023-04-10T02:40:06.319Z,8.10
2023-04-10T02:42:35.067Z,7.82
2023-04-10T02:45:05.159Z,7.57
2023-04-10T02:47:34.339Z,7.32
2023-04-10T02:50:04.888Z,8.68
2023-04-10T02:52:36.193Z,8.35
2023-04-10T02:55:04.845Z,8.77
2023-04-10T02:57:33.425Z,8.88
2023-04-10T03:00:02.802Z,7.57
2023-04-10T03:02:43.751Z,8.65
2023-04-10T03:05:12.593Z,7.85
2023-04-10T03:07:43.613Z,9.00
2023-04-10T03:10:12.480Z,8.65
2023-04-10T03:12:41.216Z,8.30
2023-04-10T03:15:10.193Z,9.05
2023-04-10T03:17:40.446Z,8.50
2023-04-10T03:20:10.022Z,7.55
2023-04-10T03:22:39.843Z,7.90
2023-04-10T03:25:10.645Z,8.27
2023-04-10T03:27:39.396Z,8.07
2023-04-10T03:30:08.898Z,8.32
2023-04-10T03:32:37.980Z,7.63
2023-04-10T03:35:08.840Z,8.18
2023-04-10T03:37:37.469Z,8.73
2023-04-10T03:40:11.796Z,7.97
2023-04-10T03:42:40.491Z,7.93
2023-04-10T03:45:09.766Z,7.90
2023-04-10T03:47:38.531Z,7.70
2023-04-10T03:50:09.078Z,8.02
2023-04-10T03:52:37.698Z,8.63
2023-04-10T03:55:06.640Z,9.52
2023-04-10T03:57:35.271Z,8.23
2023-04-10T04:00:04.258Z,8.07
2023-04-10T04:02:33.218Z,9.00
2023-04-10T04:05:02.099Z,8.43
2023-04-10T04:07:32.192Z,9.23
2023-04-10T04:10:01.517Z,9.05
2023-04-10T04:12:30.218Z,7.70
2023-04-10T04:15:01.109Z,8.70
2023-04-10T04:17:29.629Z,8.15
2023-04-10T04:19:58.178Z,7.65
2023-04-10T04:22:27.026Z,8.23
2023-04-10T04:24:56.911Z,7.95
2023-04-10T04:27:25.925Z,7.65
2023-04-10T04:29:55.573Z,7.10
2023-04-10T04:32:24.269Z,7.72
2023-04-10T04:34:52.848Z,8.38
2023-04-10T04:37:21.481Z,8.73
2023-04-10T04:39:50.107Z,9.75
2023-04-10T04:42:20.513Z,8.85
2023-04-10T04:44:48.960Z,8.32
2023-04-10T04:47:18.034Z,8.68
2023-04-10T04:49:46.839Z,9.80
2023-04-10T04:52:16.000Z,9.90
2023-04-10T04:54:44.686Z,8.70
2023-04-10T04:57:13.352Z,8.73
2023-04-10T04:59:43.568Z,8.77
2023-04-10T05:02:12.705Z,9.15
2023-04-10T05:04:42.310Z,8.48
2023-04-10T05:07:14.228Z,9.70
2023-04-10T05:09:43.061Z,8.00
2023-04-10T05:12:11.834Z,9.13
2023-04-10T05:14:40.585Z,8.88
2023-04-10T05:17:10.757Z,8.90
2023-04-10T05:19:39.810Z,8.77
2023-04-10T05:22:08.515Z,9.90
2023-04-10T05:24:37.245Z,10.30
2023-04-10T05:27:10.508Z,12.05
2023-04-10T05:29:39.475Z,13.23
2023-04-10T05:32:08.497Z,12.57
2023-04-10T05:34:38.841Z,15.57
2023-04-10T05:37:07.209Z,11.85
2023-04-10T05:39:36.027Z,11.75
2023-04-10T05:42:04.772Z,13.50
2023-04-10T05:44:33.510Z,13.50
2023-04-10T05:47:10.837Z,12.68
2023-04-10T05:49:41.019Z,12.20
2023-04-10T05:52:09.878Z,12.15
2023-04-10T05:54:38.533Z,12.50
2023-04-10T05:57:07.167Z,12.70
2023-04-10T05:59:35.808Z,12.43
2023-04-10T06:02:07.512Z,11.38
2023-04-10T06:04:37.902Z,12.80
2023-04-10T06:07:09.522Z,12.38
2023-04-10T06:09:40.806Z,13.43
2023-04-10T06:12:09.372Z,12.82
2023-04-10T06:14:38.191Z,12.07
2023-04-10T06:17:07.795Z,12.88
2023-04-10T06:19:36.394Z,11.63
2023-04-10T06:22:07.218Z,11.40
2023-04-10T06:24:37.160Z,12.70
2023-04-10T06:27:06.092Z,10.95
2023-04-10T06:29:34.689Z,10.45
2023-04-10T06:32:06.071Z,10.00
2023-04-10T06:34:36.102Z,10.73
2023-04-10T06:37:06.804Z,10.82
2023-04-10T06:39:35.706Z,11.02
2023-04-10T06:42:13.166Z,10.50
2023-04-10T06:44:43.080Z,9.50
2023-04-10T06:47:18.972Z,11.35
2023-04-10T06:50:17.388Z,10.88
2023-04-10T06:52:49.363Z,11.63
2023-04-10T06:55:22.923Z,11.80
2023-04-10T06:57:56.847Z,12.18
2023-04-10T07:03:01.240Z,12.73
2023-04-10T07:05:33.203Z,15.15
2023-04-10T07:08:04.685Z,15.05
2023-04-10T07:10:41.153Z,17.42
2023-04-10T07:13:28.357Z,15.07
2023-04-10T07:16:07.515Z,12.10
2023-04-10T07:18:46.288Z,12.30
2023-04-10T07:21:28.328Z,11.10
2023-04-10T07:24:09.824Z,11.02
2023-04-10T07:26:58.147Z,11.18
2023-04-10T07:30:02.970Z,11.02
2023-04-10T07:39:49.366Z,10.60
2023-04-10T07:52:41.168Z,10.23
2023-04-10T07:55:18.003Z,9.80
2023-04-10T08:05:07.234Z,10.10
2023-04-10T08:32:16.570Z,8.65
2023-04-10T16:10:45.209Z,2.50
2023-04-10T18:17:52.735Z,2.83
2023-04-10T19:00:01.855Z,3.38
2023-04-10T19:34:58.574Z,3.17
2023-04-10T19:44:22.319Z,3.67
2023-04-10T19:47:11.076Z,3.25
2023-04-10T19:49:56.638Z,3.13
2023-04-10T19:52:34.372Z,3.20
2023-04-10T19:55:08.147Z,3.63
2023-04-10T19:57:48.146Z,3.67
2023-04-10T20:00:45.338Z,3.60
2023-04-10T20:03:54.005Z,3.42
2023-04-10T20:06:59.534Z,3.55
2023-04-10T20:10:00.047Z,3.80
2023-04-10T20:12:51.553Z,3.45
2023-04-10T20:15:50.149Z,3.30
2023-04-10T20:18:49.627Z,3.45
2023-04-10T20:21:33.774Z,3.97
2023-04-10T20:24:22.228Z,3.60
2023-04-10T20:27:42.567Z,3.38
2023-04-10T20:30:34.157Z,4.10
2023-04-10T20:43:06.680Z,4.00
2023-04-10T20:52:21.452Z,3.60
2023-04-10T20:55:16.530Z,3.70
2023-04-10T20:58:07.799Z,4.05
2023-04-10T21:00:44.459Z,3.97
2023-04-10T21:03:27.944Z,3.65
2023-04-10T21:06:17.319Z,3.38
2023-04-10T21:09:26.148Z,3.38
2023-04-10T21:12:20.032Z,3.58
2023-04-10T21:15:18.375Z,3.90
2023-04-10T21:17:57.098Z,4.57
2023-04-10T21:20:52.923Z,4.15
2023-04-10T21:23:25.968Z,4.00
2023-04-10T21:25:59.933Z,4.10
2023-04-10T21:28:31.693Z,3.67
2023-04-10T21:31:06.295Z,3.63
2023-04-10T21:33:34.971Z,3.25
2023-04-10T21:36:11.545Z,3.60
2023-04-10T21:38:59.139Z,3.60
2023-04-10T21:41:31.173Z,3.50
2023-04-10T21:44:10.074Z,3.63
2023-04-10T21:46:44.192Z,3.60
2023-04-10T21:49:17.438Z,3.03
2023-04-10T21:51:46.225Z,3.42
2023-04-10T21:54:37.955Z,3.22
2023-04-10T21:57:15.393Z,3.47
2023-04-10T21:59:53.258Z,2.92
2023-04-10T22:02:25.500Z,3.22
2023-04-10T22:05:02.045Z,3.28
2023-04-10T22:07:32.788Z,3.22
2023-04-10T22:10:20.727Z,3.42
2023-04-10T22:12:54.888Z,3.10
2023-04-10T22:15:33.693Z,3.20
2023-04-10T22:18:07.657Z,3.35
2023-04-10T22:21:04.402Z,3.90
2023-04-10T22:23:43.152Z,4.30
2023-04-10T22:26:25.700Z,3.65
2023-04-10T22:28:59.318Z,3.45
2023-04-10T22:31:34.142Z,3.63
2023-04-10T22:34:10.064Z,3.30
2023-04-10T22:36:44.232Z,3.50
2023-04-10T22:39:16.442Z,3.40
2023-04-10T22:42:20.603Z,3.60
2023-04-10T22:44:49.550Z,3.90
2023-04-10T22:47:27.128Z,3.38
2023-04-10T22:50:22.052Z,3.67
2023-04-10T22:52:55.961Z,2.83
2023-04-10T22:57:56.992Z,3.38
2023-04-10T23:00:25.821Z,3.15
2023-04-10T23:02:54.595Z,2.90
2023-04-10T23:05:53.355Z,3.08
2023-04-10T23:08:24.646Z,3.25
2023-04-10T23:10:56.979Z,2.60
2023-04-10T23:13:40.902Z,2.75
2023-04-10T23:16:17.167Z,2.65
2023-04-10T23:18:50.078Z,2.60
2023-04-10T23:21:21.000Z,2.90
2023-04-10T23:23:57.105Z,2.35
2023-04-10T23:26:28.633Z,2.58
2023-04-10T23:28:57.396Z,2.80
2023-04-10T23:31:27.635Z,2.78
2023-04-10T23:33:56.459Z,2.97
2023-04-10T23:36:39.402Z,3.30
2023-04-10T23:39:12.439Z,2.70
2023-04-10T23:41:48.435Z,2.47
2023-04-10T23:44:30.883Z,2.50
2023-04-10T23:47:37.957Z,2.80
2023-04-10T23:50:10.861Z,2.40
2023-04-10T23:52:47.769Z,3.03
2023-04-10T23:55:32.966Z,2.95
2023-04-10T23:58:04.511Z,2.65
